createdAt,value
2022-12-25T00:00:39.636Z,12.00
2022-12-25T00:03:06.894Z,12.50
2022-12-25T00:05:34.133Z,10.00
2022-12-25T00:08:01.047Z,15.75
2022-12-25T00:10:27.895Z,11.50
2022-12-25T00:12:54.719Z,10.00
2022-12-25T00:15:21.793Z,12.75
2022-12-25T00:17:48.638Z,14.00
2022-12-25T00:20:15.542Z,11.00
2022-12-25T00:22:42.410Z,14.00
2022-12-25T00:25:09.552Z,15.50
2022-12-25T00:27:36.375Z,14.00
2022-12-25T00:30:04.933Z,12.00
2022-12-25T00:32:31.740Z,15.75
2022-12-25T00:34:58.547Z,18.75
2022-12-25T00:37:25.383Z,16.00
2022-12-25T00:39:52.233Z,12.25
2022-12-25T00:42:19.120Z,15.50
2022-12-25T00:44:50.006Z,16.00
2022-12-25T00:47:18.066Z,13.00
2022-12-25T00:49:45.375Z,11.25
2022-12-25T00:52:31.231Z,14.50
2022-12-25T00:54:58.099Z,12.00
2022-12-25T00:57:24.919Z,12.00
2022-12-25T00:59:51.877Z,10.75
2022-12-25T01:02:18.902Z,13.25
2022-12-25T01:04:45.866Z,16.50
2022-12-25T01:07:12.804Z,15.50
2022-12-25T01:09:39.849Z,14.00
2022-12-25T01:12:06.895Z,14.00
2022-12-25T01:14:33.825Z,12.00
2022-12-25T01:17:00.642Z,10.50
2022-12-25T01:19:27.731Z,15.75
2022-12-25T01:21:54.565Z,17.50
2022-12-25T01:24:21.378Z,13.00
2022-12-25T01:26:48.175Z,10.00
2022-12-25T01:29:15.140Z,12.75
2022-12-25T01:31:42.033Z,10.00
2022-12-25T01:34:08.949Z,10.50
2022-12-25T01:36:35.786Z,11.50
2022-12-25T01:39:02.759Z,16.25
2022-12-25T01:41:29.612Z,19.25
2022-12-25T01:43:58.217Z,17.00
2022-12-25T01:46:25.387Z,17.50
2022-12-25T01:48:54.136Z,12.00
2022-12-25T01:51:41.101Z,12.00
2022-12-25T01:54:18.371Z,10.00
2022-12-25T01:56:49.952Z,12.00
2022-12-25T01:59:19.541Z,15.00
2022-12-25T02:01:47.194Z,13.00
2022-12-25T02:04:43.069Z,14.00
2022-12-25T02:07:25.745Z,12.00
2022-12-25T02:09:52.962Z,15.25
2022-12-25T02:12:25.982Z,14.00
2022-12-25T02:15:05.023Z,12.00
2022-12-25T02:18:00.166Z,8.50
2022-12-25T02:20:46.952Z,16.25
2022-12-25T02:23:35.608Z,14.00
2022-12-25T02:26:05.555Z,10.00
2022-12-25T02:28:45.374Z,9.00
2022-12-25T02:31:44.865Z,10.00
2022-12-25T02:34:17.330Z,16.25
2022-12-25T02:36:50.311Z,16.00
2022-12-25T02:39:30.021Z,12.00
2022-12-25T02:42:02.588Z,12.00
2022-12-25T02:44:32.801Z,17.75
2022-12-25T02:47:00.971Z,17.00
2022-12-25T02:49:30.192Z,11.00
2022-12-25T02:52:14.006Z,8.25
2022-12-25T02:54:47.978Z,10.00
2022-12-25T02:57:18.980Z,15.75
2022-12-25T02:59:49.479Z,19.25
2022-12-25T03:02:18.515Z,15.25
2022-12-25T03:04:46.759Z,12.00
2022-12-25T03:07:18.679Z,11.50
2022-12-25T03:10:05.105Z,16.00
2022-12-25T03:12:48.859Z,14.75
2022-12-25T03:15:18.197Z,18.25
2022-12-25T03:17:45.164Z,16.25
2022-12-25T03:20:12.564Z,12.25
2022-12-25T03:22:42.982Z,12.00
2022-12-25T03:25:10.129Z,15.00
2022-12-25T03:27:39.527Z,14.00
2022-12-25T03:30:09.462Z,17.25
2022-12-25T03:32:52.291Z,18.00
2022-12-25T03:35:23.368Z,13.00
2022-12-25T03:38:24.372Z,17.00
2022-12-25T03:41:08.370Z,19.00
2022-12-25T03:43:40.872Z,13.00
2022-12-25T03:46:13.566Z,16.25
2022-12-25T03:48:45.931Z,16.00
2022-12-25T03:51:14.570Z,18.00
2022-12-25T03:53:51.443Z,18.00
2022-12-25T03:56:20.254Z,20.00
2022-12-25T03:58:55.139Z,14.00
2022-12-25T04:01:22.140Z,13.00
2022-12-25T04:03:49.344Z,14.00
2022-12-25T04:06:16.302Z,10.25
2022-12-25T04:08:43.111Z,15.75
2022-12-25T04:11:10.102Z,14.00
2022-12-25T04:13:36.986Z,12.00
2022-12-25T04:16:04.257Z,14.00
2022-12-25T04:18:31.111Z,15.00
2022-12-25T04:21:16.686Z,15.75
2022-12-25T04:23:43.625Z,15.25
2022-12-25T04:26:10.450Z,14.00
2022-12-25T04:28:37.555Z,14.25
2022-12-25T04:31:04.438Z,16.00
2022-12-25T04:33:31.356Z,15.00
2022-12-25T04:35:58.242Z,10.50
2022-12-25T04:38:25.170Z,14.00
2022-12-25T04:40:52.127Z,13.00
2022-12-25T04:43:19.013Z,15.75
2022-12-25T04:45:53.148Z,20.00
2022-12-25T04:48:20.273Z,20.50
2022-12-25T04:50:47.222Z,22.75
2022-12-25T04:53:14.267Z,20.00
2022-12-25T04:55:41.104Z,18.00
2022-12-25T04:58:08.249Z,19.25
2022-12-25T05:00:53.832Z,16.00
2022-12-25T05:03:20.757Z,18.00
2022-12-25T05:06:07.220Z,23.00
2022-12-25T05:08:35.095Z,16.00
2022-12-25T05:11:10.174Z,21.00
2022-12-25T05:13:37.848Z,14.00
2022-12-25T05:16:23.638Z,12.50
2022-12-25T05:18:51.515Z,16.00
2022-12-25T05:21:19.288Z,20.25
2022-12-25T05:23:50.566Z,16.00
2022-12-25T05:26:22.802Z,14.00
2022-12-25T05:28:49.813Z,17.50
2022-12-25T05:31:17.726Z,21.00
2022-12-25T05:33:44.809Z,20.50
2022-12-25T05:36:12.607Z,20.25
2022-12-25T05:38:40.036Z,17.50
2022-12-25T05:41:06.865Z,18.00
2022-12-25T05:43:33.890Z,17.00
2022-12-25T05:46:08.194Z,17.25
2022-12-25T05:48:37.347Z,10.50
2022-12-25T05:51:09.965Z,12.00
2022-12-25T05:53:37.704Z,17.50
2022-12-25T05:56:07.404Z,13.25
2022-12-25T05:58:37.010Z,15.75
2022-12-25T06:01:04.511Z,15.00
2022-12-25T06:03:31.804Z,14.00
2022-12-25T06:05:58.825Z,14.50
2022-12-25T06:08:25.637Z,12.50
2022-12-25T06:10:52.438Z,17.50
2022-12-25T06:13:19.349Z,15.00
2022-12-25T06:15:46.160Z,12.50
2022-12-25T06:18:12.999Z,12.00
2022-12-25T06:20:42.674Z,12.00
2022-12-25T06:23:09.521Z,14.00
2022-12-25T06:25:39.622Z,16.25
2022-12-25T06:28:07.117Z,16.50
2022-12-25T06:30:34.569Z,17.00
2022-12-25T06:33:01.352Z,19.50
2022-12-25T06:35:28.447Z,16.00
2022-12-25T06:37:55.242Z,16.75
2022-12-25T06:40:22.074Z,22.75
2022-12-25T06:42:48.940Z,19.75
2022-12-25T06:45:15.856Z,16.00
2022-12-25T06:47:42.689Z,16.00
2022-12-25T06:50:09.548Z,18.00
2022-12-25T06:52:36.395Z,14.75
2022-12-25T06:55:03.260Z,14.00
2022-12-25T06:57:30.176Z,17.75
2022-12-25T06:59:57.052Z,21.50
2022-12-25T07:02:24.958Z,23.75
2022-12-25T07:04:53.213Z,18.00
2022-12-25T07:07:20.527Z,14.00
2022-12-25T07:09:47.347Z,18.00
2022-12-25T07:12:20.831Z,18.50
2022-12-25T07:14:48.299Z,19.00
2022-12-25T07:17:16.830Z,21.00
2022-12-25T07:19:45.409Z,18.25
2022-12-25T07:22:13.716Z,17.00
2022-12-25T07:24:40.671Z,21.00
2022-12-25T07:27:07.717Z,21.00
2022-12-25T07:29:35.323Z,19.25
2022-12-25T07:32:02.292Z,19.00
2022-12-25T07:34:29.355Z,21.25
2022-12-25T07:36:56.215Z,30.00
2022-12-25T07:39:23.229Z,23.00
2022-12-25T07:41:50.073Z,19.75
2022-12-25T07:44:17.011Z,14.50
2022-12-25T07:46:43.896Z,14.25
2022-12-25T07:49:11.557Z,16.50
2022-12-25T07:51:38.540Z,12.50
2022-12-25T07:54:05.568Z,18.25
2022-12-25T07:56:32.444Z,14.00
2022-12-25T07:58:59.329Z,15.00
2022-12-25T08:01:27.855Z,16.00
2022-12-25T08:03:57.334Z,12.00
2022-12-25T08:06:26.256Z,14.75
2022-12-25T08:08:53.236Z,14.00
2022-12-25T08:11:20.221Z,9.50
2022-12-25T08:13:47.152Z,11.00
2022-12-25T08:16:14.137Z,18.75
2022-12-25T08:18:41.245Z,22.00
2022-12-25T08:21:12.053Z,23.25
2022-12-25T08:23:42.267Z,16.50
2022-12-25T08:26:12.460Z,15.75
2022-12-25T08:28:39.436Z,13.00
2022-12-25T08:31:27.826Z,12.00
2022-12-25T08:33:57.701Z,12.00
2022-12-25T08:36:24.798Z,15.00
2022-12-25T08:38:55.580Z,13.75
2022-12-25T08:41:26.532Z,17.00
2022-12-25T08:43:53.820Z,17.50
2022-12-25T08:46:39.099Z,18.50
2022-12-25T08:49:06.175Z,15.50
2022-12-25T08:51:32.998Z,20.00
2022-12-25T08:54:00.827Z,19.00
2022-12-25T08:56:28.020Z,13.75
2022-12-25T08:58:54.952Z,16.50
2022-12-25T09:01:21.861Z,17.00
2022-12-25T09:03:48.905Z,18.00
2022-12-25T09:06:16.748Z,15.75
2022-12-25T09:08:48.712Z,16.75
2022-12-25T09:11:17.065Z,11.00
2022-12-25T09:13:44.242Z,11.50
2022-12-25T09:16:14.075Z,11.00
2022-12-25T09:18:41.173Z,12.00
2022-12-25T09:21:11.523Z,11.00
2022-12-25T09:23:38.336Z,9.75
2022-12-25T09:26:07.488Z,10.50
2022-12-25T09:28:34.666Z,14.50
2022-12-25T09:31:21.236Z,13.00
2022-12-25T09:33:48.478Z,15.25
2022-12-25T09:36:15.436Z,14.00
2022-12-25T09:38:42.464Z,12.00
2022-12-25T09:41:09.227Z,15.50
2022-12-25T09:44:02.594Z,12.75
2022-12-25T09:46:38.709Z,17.75
2022-12-25T09:49:24.564Z,12.25
2022-12-25T09:51:59.584Z,14.00
2022-12-25T09:54:39.763Z,14.00
2022-12-25T09:57:11.942Z,9.00
2022-12-25T09:59:39.262Z,6.00
2022-12-25T10:02:27.655Z,5.00
2022-12-25T10:05:15.898Z,7.00
2022-12-25T10:07:52.390Z,6.00
2022-12-25T10:10:22.369Z,5.00
2022-12-25T10:13:10.029Z,9.25
2022-12-25T10:15:45.856Z,12.00
2022-12-25T10:18:38.261Z,16.00
2022-12-25T10:21:12.935Z,14.00
2022-12-25T10:23:58.646Z,10.00
2022-12-25T10:26:27.130Z,9.75
2022-12-25T10:29:14.403Z,10.50
2022-12-25T10:31:45.159Z,14.50
2022-12-25T10:34:13.753Z,10.50
2022-12-25T10:36:42.083Z,11.25
2022-12-25T10:39:16.861Z,15.50
2022-12-25T10:42:02.644Z,11.00
2022-12-25T10:44:30.125Z,12.00
2022-12-25T10:46:59.167Z,11.50
2022-12-25T10:49:39.490Z,9.50
2022-12-25T10:52:26.101Z,10.00
2022-12-25T10:54:53.258Z,6.00
2022-12-25T10:57:22.908Z,10.00
2022-12-25T10:59:52.620Z,13.25
2022-12-25T11:02:25.782Z,12.75
2022-12-25T11:05:14.791Z,10.00
2022-12-25T11:07:47.147Z,9.00
2022-12-25T11:10:30.400Z,8.25
2022-12-25T11:12:59.267Z,12.00
2022-12-25T11:15:37.168Z,6.00
2022-12-25T11:18:16.966Z,5.00
2022-12-25T11:20:55.479Z,11.00
2022-12-25T11:23:24.229Z,10.00
2022-12-25T11:26:01.730Z,16.75
2022-12-25T11:28:31.163Z,17.00
2022-12-25T11:31:06.917Z,16.50
2022-12-25T11:33:45.654Z,16.00
2022-12-25T11:36:20.339Z,12.00
2022-12-25T11:38:47.565Z,12.50
2022-12-25T11:41:17.858Z,16.75
2022-12-25T11:43:53.424Z,14.75
2022-12-25T11:46:27.284Z,14.00
2022-12-25T11:49:00.953Z,15.00
2022-12-25T11:51:34.857Z,11.25
2022-12-25T11:54:26.056Z,11.75
2022-12-25T11:56:53.543Z,11.00
2022-12-25T11:59:40.858Z,9.00
2022-12-25T12:02:51.501Z,11.75
2022-12-25T12:05:48.172Z,14.00
2022-12-25T12:08:15.050Z,8.25
2022-12-25T12:11:06.809Z,4.75
2022-12-25T12:13:48.891Z,5.00
2022-12-25T12:16:15.999Z,12.75
2022-12-25T12:18:49.782Z,11.00
2022-12-25T12:21:30.620Z,12.25
2022-12-25T12:24:03.104Z,9.25
2022-12-25T12:26:35.897Z,4.50
2022-12-25T12:29:05.176Z,5.00
2022-12-25T12:31:42.576Z,8.25
2022-12-25T12:34:46.030Z,8.00
2022-12-25T12:37:24.652Z,5.00
2022-12-25T12:39:54.780Z,4.00
2022-12-25T12:42:46.082Z,5.00
2022-12-25T12:45:36.448Z,3.00
2022-12-25T12:48:15.217Z,5.00
2022-12-25T12:51:23.829Z,10.75
2022-12-25T12:53:50.914Z,13.00
2022-12-25T12:56:20.389Z,7.75
2022-12-25T12:58:50.167Z,3.00
2022-12-25T13:01:42.665Z,8.00
2022-12-25T13:04:20.569Z,13.25
2022-12-25T13:07:03.386Z,9.00
2022-12-25T13:09:48.640Z,11.75
2022-12-25T13:12:17.331Z,6.00
2022-12-25T13:15:02.590Z,3.25
2022-12-25T13:17:30.060Z,4.00
2022-12-25T13:19:59.661Z,3.00
2022-12-25T13:22:34.939Z,4.00
2022-12-25T13:25:05.669Z,10.50
2022-12-25T13:27:34.131Z,13.50
2022-12-25T13:30:19.011Z,9.00
2022-12-25T13:32:46.365Z,5.25
2022-12-25T13:35:14.834Z,8.50
2022-12-25T13:37:43.281Z,7.25
2022-12-25T13:40:24.783Z,7.00
2022-12-25T13:42:58.280Z,7.50
2022-12-25T13:45:28.245Z,7.00
2022-12-25T13:48:17.630Z,8.75
2022-12-25T13:50:44.491Z,13.00
2022-12-25T13:53:16.387Z,13.50
2022-12-25T13:56:02.282Z,8.00
2022-12-25T13:58:34.434Z,11.75
2022-12-25T14:01:03.753Z,11.00
2022-12-25T14:03:33.759Z,5.25
2022-12-25T14:06:05.909Z,5.00
2022-12-25T14:08:35.104Z,7.00
2022-12-25T14:11:05.486Z,7.00
2022-12-25T14:13:36.924Z,6.25
2022-12-25T14:16:22.810Z,5.50
2022-12-25T14:18:55.519Z,9.50
2022-12-25T14:21:28.441Z,13.50
2022-12-25T14:23:55.844Z,11.50
2022-12-25T14:26:35.592Z,11.00
2022-12-25T14:29:05.615Z,12.00
2022-12-25T14:31:33.698Z,16.00
2022-12-25T14:34:03.181Z,13.00
2022-12-25T14:36:33.096Z,12.00
2022-12-25T14:39:02.755Z,17.00
2022-12-25T14:41:35.370Z,16.00
2022-12-25T14:44:23.435Z,18.00
2022-12-25T14:47:08.553Z,11.50
2022-12-25T14:49:35.549Z,10.50
2022-12-25T14:52:25.685Z,15.50
2022-12-25T14:55:06.521Z,11.75
2022-12-25T14:57:41.285Z,7.25
2022-12-25T15:00:51.064Z,6.00
2022-12-25T15:03:24.677Z,11.25
2022-12-25T15:06:19.192Z,11.00
2022-12-25T15:09:16.798Z,10.00
2022-12-25T15:11:47.070Z,8.00
2022-12-25T15:14:14.093Z,12.25
2022-12-25T15:16:45.822Z,12.00
2022-12-25T15:19:26.458Z,8.25
2022-12-25T15:21:54.319Z,11.50
2022-12-25T15:24:22.799Z,12.00
2022-12-25T15:26:49.942Z,7.00
2022-12-25T15:29:27.581Z,12.75
2022-12-25T15:32:04.277Z,8.25
2022-12-25T15:34:31.233Z,7.00
2022-12-25T15:36:58.129Z,10.25
2022-12-25T15:39:24.982Z,7.50
2022-12-25T15:41:51.961Z,10.75
2022-12-25T15:44:18.820Z,13.75
2022-12-25T15:46:46.089Z,15.25
2022-12-25T15:49:14.919Z,12.00
2022-12-25T15:51:43.279Z,9.00
2022-12-25T15:54:10.718Z,8.75
2022-12-25T15:56:48.003Z,8.00
2022-12-25T15:59:17.143Z,7.00
2022-12-25T16:01:49.662Z,11.00
2022-12-25T16:04:35.782Z,13.75
2022-12-25T16:07:02.832Z,11.75
2022-12-25T16:09:29.757Z,11.00
2022-12-25T16:11:56.803Z,7.50
2022-12-25T16:14:23.862Z,7.00
2022-12-25T16:16:51.018Z,7.00
2022-12-25T16:19:17.855Z,7.25
2022-12-25T16:21:47.112Z,6.75
2022-12-25T16:24:15.013Z,4.25
2022-12-25T16:26:43.652Z,3.00
2022-12-25T16:29:12.409Z,5.50
2022-12-25T16:31:40.746Z,10.75
2022-12-25T16:34:08.652Z,10.00
2022-12-25T16:36:36.469Z,7.00
2022-12-25T16:39:04.924Z,5.00
2022-12-25T16:41:33.571Z,8.00
2022-12-25T16:44:10.245Z,9.00
2022-12-25T16:46:41.070Z,9.00
2022-12-25T16:49:10.982Z,13.75
2022-12-25T16:51:46.374Z,9.50
2022-12-25T16:54:20.014Z,4.75
2022-12-25T16:56:47.790Z,9.00
2022-12-25T16:59:15.145Z,6.75
2022-12-25T17:01:42.342Z,4.75
2022-12-25T17:04:10.069Z,8.00
2022-12-25T17:06:37.826Z,13.25
2022-12-25T17:09:23.467Z,12.00
2022-12-25T17:11:50.493Z,15.75
2022-12-25T17:14:36.545Z,16.50
2022-12-25T17:17:04.018Z,13.00
2022-12-25T17:19:31.720Z,11.00
2022-12-25T17:21:59.570Z,5.00
2022-12-25T17:24:27.504Z,4.75
2022-12-25T17:26:56.258Z,3.50
2022-12-25T17:29:23.231Z,3.00
2022-12-25T17:31:51.232Z,3.00
2022-12-25T17:34:18.820Z,3.00
2022-12-25T17:36:45.827Z,4.00
2022-12-25T17:39:31.347Z,4.00
2022-12-25T17:42:16.837Z,5.00
2022-12-25T17:44:43.875Z,3.50
2022-12-25T17:47:30.218Z,5.50
2022-12-25T17:49:57.651Z,9.00
2022-12-25T17:52:24.527Z,4.50
2022-12-25T17:54:51.757Z,3.00
2022-12-25T17:57:18.719Z,8.50
2022-12-25T17:59:45.899Z,9.00
2022-12-25T18:02:34.568Z,3.25
2022-12-25T18:05:01.906Z,3.00
2022-12-25T18:07:28.913Z,3.00
2022-12-25T18:09:56.991Z,3.00
2022-12-25T18:12:23.949Z,9.00
2022-12-25T18:14:56.664Z,5.50
2022-12-25T18:17:23.522Z,5.00
2022-12-25T18:19:51.747Z,7.00
2022-12-25T18:22:18.979Z,10.00
2022-12-25T18:24:47.193Z,8.75
2022-12-25T18:27:14.599Z,3.00
2022-12-25T18:29:42.361Z,3.00
2022-12-25T18:32:09.639Z,2.75
2022-12-25T18:34:56.255Z,3.00
2022-12-25T18:37:24.957Z,3.00
2022-12-25T18:39:56.270Z,3.25
2022-12-25T18:42:23.395Z,3.00
2022-12-25T18:44:51.032Z,4.50
2022-12-25T18:47:18.313Z,8.75
2022-12-25T18:49:47.212Z,4.00
2022-12-25T18:52:47.808Z,2.00
2022-12-25T18:55:05.174Z,3.00
2022-12-25T18:57:33.321Z,5.00
2022-12-25T19:00:02.540Z,8.50
2022-12-25T19:02:29.541Z,4.50
2022-12-25T19:04:56.651Z,5.75
2022-12-25T19:07:23.963Z,5.50
2022-12-25T19:09:51.605Z,3.00
2022-12-25T19:12:19.993Z,2.00
2022-12-25T19:14:48.549Z,2.50
2022-12-25T19:17:31.363Z,4.00
2022-12-25T19:19:59.386Z,5.00
2022-12-25T19:22:26.984Z,4.00
2022-12-25T19:24:55.543Z,1.50
2022-12-25T19:27:41.207Z,1.00
2022-12-25T19:30:10.818Z,1.00
2022-12-25T19:32:38.392Z,2.00
2022-12-25T19:35:06.337Z,6.00
2022-12-25T19:37:35.140Z,5.00
2022-12-25T19:40:02.188Z,4.00
2022-12-25T19:42:29.266Z,4.00
2022-12-25T19:44:59.248Z,5.00
2022-12-25T19:47:26.434Z,3.00
2022-12-25T19:49:54.414Z,5.50
2022-12-25T19:52:23.414Z,7.00
2022-12-25T19:54:51.391Z,3.00
2022-12-25T19:57:18.367Z,3.25
2022-12-25T19:59:46.359Z,6.25
2022-12-25T20:02:13.339Z,6.50
2022-12-25T20:04:40.328Z,5.00
2022-12-25T20:07:07.185Z,3.75
2022-12-25T20:09:52.983Z,3.00
2022-12-25T20:12:19.948Z,4.00
2022-12-25T20:14:46.918Z,5.00
2022-12-25T20:17:16.222Z,1.50
2022-12-25T20:19:43.344Z,2.00
2022-12-25T20:22:10.479Z,6.75
2022-12-25T20:24:37.708Z,7.00
2022-12-25T20:27:04.972Z,2.75
2022-12-25T20:29:50.440Z,3.00
2022-12-25T20:32:17.648Z,1.00
2022-12-25T20:34:44.672Z,5.50
2022-12-25T20:37:13.319Z,5.75
2022-12-25T20:39:40.526Z,5.75
2022-12-25T20:42:07.454Z,5.00
2022-12-25T20:44:34.369Z,7.75
2022-12-25T20:47:01.287Z,3.00
2022-12-25T20:49:28.307Z,1.00
2022-12-25T20:51:59.782Z,5.00
2022-12-25T20:54:29.976Z,2.50
2022-12-25T20:56:56.903Z,1.00
2022-12-25T20:59:23.965Z,5.00
2022-12-25T21:01:50.967Z,4.00
2022-12-25T21:04:17.944Z,7.50
2022-12-25T21:06:44.769Z,2.75
2022-12-25T21:09:11.796Z,1.00
2022-12-25T21:11:38.691Z,6.00
2022-12-25T21:14:05.585Z,3.00
2022-12-25T21:16:32.430Z,1.00
2022-12-25T21:18:59.477Z,1.50
2022-12-25T21:21:26.416Z,2.00
2022-12-25T21:23:55.931Z,1.00
2022-12-25T21:26:26.332Z,5.00
2022-12-25T21:28:56.073Z,4.00
2022-12-25T21:31:24.749Z,5.00
2022-12-25T21:33:51.736Z,3.00
2022-12-25T21:36:34.564Z,4.50
2022-12-25T21:39:07.128Z,3.00
2022-12-25T21:41:36.590Z,3.00
2022-12-25T21:44:03.701Z,3.25
2022-12-25T21:46:31.419Z,3.25
2022-12-25T21:48:59.565Z,1.00
2022-12-25T21:51:29.713Z,3.00
2022-12-25T21:53:57.017Z,1.25
2022-12-25T21:56:23.875Z,1.00
2022-12-25T21:58:50.681Z,5.50
2022-12-25T22:01:17.746Z,1.75
2022-12-25T22:03:45.184Z,1.00
2022-12-25T22:06:20.948Z,2.50
2022-12-25T22:08:48.473Z,1.50
2022-12-25T22:11:15.349Z,1.00
2022-12-25T22:14:00.542Z,1.00
2022-12-25T22:16:27.454Z,4.50
2022-12-25T22:18:54.695Z,5.00
2022-12-25T22:21:22.077Z,6.25
2022-12-25T22:24:07.869Z,2.50
2022-12-25T22:26:35.232Z,0.00
2022-12-25T22:29:02.171Z,3.00
2022-12-25T22:31:29.214Z,1.00
2022-12-25T22:33:56.079Z,3.75
2022-12-25T22:36:23.008Z,1.50
2022-12-25T22:38:49.863Z,4.00
2022-12-25T22:41:16.797Z,3.25
2022-12-25T22:44:15.911Z,3.00
2022-12-25T22:46:30.550Z,5.00
2022-12-25T22:48:57.386Z,4.00
2022-12-25T22:51:24.225Z,3.00
2022-12-25T22:53:51.039Z,1.00
2022-12-25T22:56:18.041Z,1.25
2022-12-25T22:59:03.252Z,0.00
2022-12-25T23:03:58.292Z,1.00
2022-12-25T23:06:25.390Z,2.75
2022-12-25T23:08:52.233Z,1.00
2022-12-25T23:11:19.335Z,0.00
2022-12-25T23:13:46.219Z,1.00
2022-12-25T23:16:15.158Z,0.00
2022-12-25T23:18:41.970Z,3.25
2022-12-25T23:21:15.532Z,3.00
2022-12-25T23:23:42.387Z,1.00
2022-12-25T23:26:09.311Z,0.00
2022-12-25T23:28:42.106Z,0.00
2022-12-25T23:31:09.067Z,0.75
2022-12-25T23:33:36.011Z,2.25
2022-12-25T23:36:03.108Z,3.00
2022-12-25T23:38:29.926Z,3.00
2022-12-25T23:40:56.827Z,1.00
2022-12-25T23:43:23.716Z,1.00
2022-12-25T23:45:50.622Z,2.00
2022-12-25T23:48:17.458Z,2.75
2022-12-25T23:50:44.468Z,2.00
2022-12-25T23:53:11.259Z,1.00
2022-12-25T23:55:38.222Z,1.00
2022-12-25T23:58:05.707Z,1.00
